Time;durP1;ratioP1;P1;durP2;ratioP2;P2;SDS_P1;SDS_P2;PMS_P1;PMS_P2;Temp;Humidity;BMP_temperature;BMP_pressure;BME280_temperature;BME280_humidity;BME280_pressure;Samples;Min_cycle;Max_cycle;Signal;HPM_P1;HPM_P2
2022/10/21 00:02:15;;;;;;;14.88;11.60;;;15.90;99.90;;;;;;4996589;28;20206;-80
2022/10/21 00:04:43;;;;;;;16.73;10.75;;;15.90;99.90;;;;;;5012502;28;20564;-80
2022/10/21 00:07:10;;;;;;;16.05;11.00;;;15.90;99.90;;;;;;4995647;28;20227;-80
2022/10/21 00:09:37;;;;;;;16.00;11.45;;;15.90;99.90;;;;;;4994552;28;20218;-80
2022/10/21 00:12:05;;;;;;;14.27;10.30;;;15.80;99.90;;;;;;4994859;28;20199;-80
2022/10/21 00:14:34;;;;;;;16.42;11.82;;;15.80;99.90;;;;;;4997571;28;20213;-80
2022/10/21 00:17:01;;;;;;;14.07;11.20;;;15.80;99.90;;;;;;4995882;28;20195;-80
2022/10/21 00:19:29;;;;;;;13.57;11.18;;;15.80;99.90;;;;;;4995677;28;20262;-80
2022/10/21 00:21:56;;;;;;;14.43;11.02;;;15.80;99.90;;;;;;4994323;28;20196;-80
2022/10/21 00:24:23;;;;;;;17.45;11.48;;;15.80;99.90;;;;;;5006801;28;20202;-80
2022/10/21 00:26:51;;;;;;;15.20;11.40;;;15.70;99.90;;;;;;4995730;28;20275;-80
2022/10/21 00:29:18;;;;;;;17.13;11.25;;;15.70;99.90;;;;;;4994938;28;20230;-80
2022/10/21 00:31:47;;;;;;;16.85;11.90;;;15.70;99.90;;;;;;5008569;28;20214;-80
2022/10/21 00:34:15;;;;;;;14.32;10.73;;;15.70;99.90;;;;;;4996331;28;20200;-80
2022/10/21 00:36:42;;;;;;;14.57;11.10;;;15.70;99.90;;;;;;4996412;28;20203;-80
2022/10/21 00:39:09;;;;;;;15.30;10.35;;;15.70;99.90;;;;;;5012111;28;20219;-80
2022/10/21 00:41:37;;;;;;;16.40;12.15;;;15.70;99.90;;;;;;4993467;28;20192;-80
2022/10/21 00:44:07;;;;;;;15.93;11.02;;;15.70;99.90;;;;;;4996633;28;20195;-80
2022/10/21 00:46:38;;;;;;;17.83;11.70;;;15.70;99.90;;;;;;4991580;28;20227;-80
2022/10/21 00:49:13;;;;;;;15.05;11.80;;;15.70;99.90;;;;;;5012037;28;20222;-80
2022/10/21 00:51:43;;;;;;;16.13;10.48;;;15.70;99.90;;;;;;4990483;28;20200;-80
2022/10/21 00:54:11;;;;;;;12.35;10.50;;;15.70;99.90;;;;;;4998286;28;20199;-80
2022/10/21 00:56:46;;;;;;;16.88;11.07;;;15.70;99.90;;;;;;5009437;28;20199;-80
2022/10/21 00:59:14;;;;;;;15.25;10.75;;;15.70;99.90;;;;;;4994072;28;20219;-80
2022/10/21 01:01:42;;;;;;;16.05;11.00;;;15.70;99.90;;;;;;4994284;28;20573;-80
2022/10/21 01:04:11;;;;;;;15.98;11.30;;;15.70;99.90;;;;;;4994865;28;20207;-80
2022/10/21 01:06:40;;;;;;;15.20;10.73;;;15.60;99.90;;;;;;4996848;28;20223;-80
2022/10/21 01:09:07;;;;;;;14.38;10.38;;;15.60;99.90;;;;;;4995249;28;20232;-80
2022/10/21 01:11:42;;;;;;;14.13;10.20;;;15.70;99.90;;;;;;5008945;28;20200;-80
2022/10/21 01:14:37;;;;;;;13.00;10.15;;;15.60;99.90;;;;;;4995912;28;20199;-80
2022/10/21 01:17:14;;;;;;;14.52;9.93;;;15.60;99.90;;;;;;4994493;28;20211;-80
2022/10/21 01:20:12;;;;;;;15.73;10.45;;;15.60;99.90;;;;;;5009565;28;20210;-80
2022/10/21 01:23:03;;;;;;;11.70;10.07;;;15.60;99.90;;;;;;4992462;28;20215;-80
2022/10/21 01:25:50;;;;;;;13.80;10.10;;;15.60;99.90;;;;;;4992596;28;20692;-81
2022/10/21 01:28:26;;;;;;;14.20;10.30;;;15.70;99.90;;;;;;4989088;28;20223;-80
2022/10/21 01:30:57;;;;;;;11.30;9.77;;;15.70;99.90;;;;;;5010308;28;20195;-78
2022/10/21 01:33:38;;;;;;;16.15;11.20;;;15.60;99.90;;;;;;5012113;28;20681;-78
2022/10/21 01:36:14;;;;;;;14.43;10.65;;;15.60;99.90;;;;;;4994700;28;20191;-78
2022/10/21 01:38:45;;;;;;;12.55;10.52;;;15.60;99.90;;;;;;4991609;28;20224;-78
2022/10/21 01:41:20;;;;;;;16.52;10.75;;;15.60;99.90;;;;;;5010169;28;20673;-78
2022/10/21 01:43:55;;;;;;;15.10;10.70;;;15.60;99.90;;;;;;5009882;28;20203;-80
2022/10/21 01:46:27;;;;;;;13.90;10.07;;;15.60;99.90;;;;;;4995360;28;20568;-80
2022/10/21 01:49:00;;;;;;;14.80;11.38;;;15.60;99.90;;;;;;4995889;28;20238;-80
2022/10/21 01:51:28;;;;;;;18.00;10.13;;;15.50;99.90;;;;;;5010888;28;20196;-78
2022/10/21 01:54:02;;;;;;;15.00;10.23;;;15.50;99.90;;;;;;4992003;28;20200;-78
2022/10/21 01:56:31;;;;;;;13.77;10.95;;;15.50;99.90;;;;;;4995260;28;20214;-78
2022/10/21 01:59:01;;;;;;;11.60;9.13;;;15.50;99.90;;;;;;4991556;28;20224;-79
2022/10/21 02:01:32;;;;;;;12.95;9.27;;;15.40;99.90;;;;;;4990151;28;20196;-78
2022/10/21 02:04:02;;;;;;;14.10;9.90;;;15.40;99.90;;;;;;4991153;28;20195;-78
2022/10/21 02:06:30;;;;;;;11.30;9.57;;;15.40;99.90;;;;;;4995369;28;20242;-78
2022/10/21 02:08:57;;;;;;;10.68;9.32;;;15.40;99.90;;;;;;4992175;28;20615;-78
2022/10/21 02:11:25;;;;;;;13.15;9.40;;;15.40;99.90;;;;;;4990309;28;20693;-78
2022/10/21 02:13:58;;;;;;;15.05;9.93;;;15.50;99.90;;;;;;5008872;28;20208;-78
2022/10/21 02:16:31;;;;;;;12.48;9.50;;;15.50;99.90;;;;;;4995190;28;20203;-78
2022/10/21 02:19:02;;;;;;;11.68;9.57;;;15.50;99.90;;;;;;4993202;28;20215;-78
2022/10/21 02:21:34;;;;;;;10.70;9.30;;;15.50;99.90;;;;;;4994225;28;20203;-78
2022/10/21 02:24:06;;;;;;;13.23;9.45;;;15.40;99.90;;;;;;4993929;28;20191;-78
2022/10/21 02:26:34;;;;;;;12.90;9.15;;;15.50;99.90;;;;;;4996233;28;20681;-78
2022/10/21 02:29:01;;;;;;;12.38;9.07;;;15.50;99.90;;;;;;4994056;28;20220;-78
2022/10/21 02:31:46;;;;;;;12.48;9.38;;;15.50;99.90;;;;;;4992941;28;20211;-78
2022/10/21 02:34:26;;;;;;;10.93;8.98;;;15.40;99.90;;;;;;4991866;28;20681;-79
2022/10/21 02:36:59;;;;;;;12.15;8.75;;;15.40;99.90;;;;;;4988540;28;20674;-79
2022/10/21 02:39:33;;;;;;;11.23;9.23;;;15.40;99.90;;;;;;5003076;28;20223;-79
2022/10/21 02:42:03;;;;;;;12.85;8.50;;;15.20;99.90;;;;;;5010291;28;20203;-79
2022/10/21 02:44:31;;;;;;;11.50;9.43;;;15.20;99.90;;;;;;4991457;28;20212;-79
2022/10/21 02:47:00;;;;;;;12.68;9.38;;;15.20;99.90;;;;;;4992449;28;20215;-79
2022/10/21 02:49:27;;;;;;;10.98;8.93;;;15.10;99.90;;;;;;5006125;28;20625;-79
2022/10/21 02:51:55;;;;;;;12.20;9.45;;;15.00;99.90;;;;;;4997704;28;20218;-79
2022/10/21 02:54:23;;;;;;;14.18;9.07;;;15.00;99.90;;;;;;4996260;28;20218;-79
2022/10/21 02:56:50;;;;;;;11.35;9.40;;;14.90;99.90;;;;;;5013098;28;20215;-79
2022/10/21 02:59:17;;;;;;;12.65;9.10;;;14.80;99.90;;;;;;4992397;28;20226;-79
2022/10/21 03:01:45;;;;;;;11.32;8.80;;;14.80;99.90;;;;;;5015554;28;20204;-79
2022/10/21 03:04:14;;;;;;;14.02;8.70;;;14.80;99.90;;;;;;5014235;28;20188;-79
2022/10/21 03:06:41;;;;;;;11.40;8.40;;;14.70;99.90;;;;;;4997689;28;20220;-79
2022/10/21 03:09:08;;;;;;;11.63;7.78;;;14.80;99.90;;;;;;4995808;28;20228;-80
2022/10/21 03:11:36;;;;;;;12.50;7.95;;;14.80;99.90;;;;;;4999402;28;20200;-79
2022/10/21 03:14:03;;;;;;;8.00;6.50;;;14.80;99.90;;;;;;4997909;28;20202;-79
2022/10/21 03:16:31;;;;;;;8.57;7.03;;;14.90;99.90;;;;;;4999203;28;20215;-79
2022/10/21 03:18:58;;;;;;;8.73;7.20;;;14.90;99.90;;;;;;4998458;28;20212;-79
2022/10/21 03:21:27;;;;;;;8.43;6.65;;;14.90;99.90;;;;;;4997413;28;20207;-78
2022/10/21 03:23:54;;;;;;;8.07;6.13;;;14.90;99.90;;;;;;4999016;28;20204;-79
2022/10/21 03:26:22;;;;;;;7.40;5.97;;;15.00;99.90;;;;;;4999307;28;20204;-78
2022/10/21 03:28:49;;;;;;;8.40;5.55;;;15.00;99.90;;;;;;4998352;28;20228;-79
2022/10/21 03:31:16;;;;;;;6.97;5.03;;;15.00;99.90;;;;;;4999494;28;20199;-79
2022/10/21 03:33:44;;;;;;;9.85;5.78;;;15.10;99.90;;;;;;5001488;28;20200;-78
2022/10/21 03:36:11;;;;;;;6.85;4.80;;;15.10;99.90;;;;;;4999304;28;20203;-79
2022/10/21 03:38:40;;;;;;;7.55;4.68;;;15.10;99.90;;;;;;4997016;28;20219;-79
2022/10/21 03:41:07;;;;;;;7.38;4.45;;;15.10;99.90;;;;;;4996726;28;20200;-79
2022/10/21 03:43:35;;;;;;;5.70;4.35;;;15.10;99.90;;;;;;4999318;28;20287;-79
2022/10/21 03:46:02;;;;;;;6.75;4.65;;;15.10;99.90;;;;;;4998146;28;20196;-80
2022/10/21 03:48:30;;;;;;;5.20;4.57;;;15.10;99.90;;;;;;5013166;28;20584;-80
2022/10/21 03:50:57;;;;;;;6.18;4.18;;;15.20;99.90;;;;;;4994835;28;20547;-78
2022/10/21 03:53:25;;;;;;;6.53;4.22;;;15.20;99.90;;;;;;4993498;28;20291;-79
2022/10/21 03:55:54;;;;;;;7.20;4.60;;;15.20;99.90;;;;;;4994509;28;20199;-79
2022/10/21 03:58:21;;;;;;;6.68;4.80;;;15.20;99.90;;;;;;4993540;28;20216;-79
2022/10/21 04:00:52;;;;;;;5.43;4.07;;;15.20;99.90;;;;;;4994010;28;20196;-78
2022/10/21 04:03:20;;;;;;;4.72;4.07;;;15.20;99.90;;;;;;4993974;28;20200;-79
2022/10/21 04:05:47;;;;;;;6.22;5.03;;;15.20;99.90;;;;;;4995405;28;20215;-80
2022/10/21 04:08:15;;;;;;;7.18;4.38;;;15.20;99.90;;;;;;4998430;28;20725;-80
2022/10/21 04:10:42;;;;;;;5.13;3.83;;;15.30;99.90;;;;;;5007160;28;20211;-78
2022/10/21 04:13:11;;;;;;;7.20;4.80;;;15.20;99.90;;;;;;5014012;28;20192;-80
2022/10/21 04:15:38;;;;;;;5.68;4.10;;;15.30;99.90;;;;;;4997681;28;20696;-79
2022/10/21 04:18:06;;;;;;;5.85;4.55;;;15.30;99.90;;;;;;4998752;28;20222;-80
2022/10/21 04:20:34;;;;;;;6.03;4.53;;;15.30;99.90;;;;;;4998102;28;20204;-78
2022/10/21 04:23:02;;;;;;;7.28;4.35;;;15.30;99.90;;;;;;4999962;28;20222;-79
2022/10/21 04:25:29;;;;;;;5.53;3.95;;;15.30;99.90;;;;;;4994941;28;20219;-79
2022/10/21 04:27:57;;;;;;;4.65;3.67;;;15.20;99.90;;;;;;5016056;28;20688;-79
2022/10/21 04:30:25;;;;;;;5.80;3.65;;;15.30;99.90;;;;;;4997929;28;20208;-80
2022/10/21 04:32:53;;;;;;;5.18;3.95;;;15.30;99.90;;;;;;4999579;28;20196;-80
2022/10/21 04:35:20;;;;;;;6.65;4.22;;;15.30;99.90;;;;;;4997316;28;20210;-80
2022/10/21 04:37:48;;;;;;;5.60;3.85;;;15.30;99.90;;;;;;4999321;28;20592;-79
2022/10/21 04:40:15;;;;;;;4.97;3.83;;;15.30;99.90;;;;;;4996226;28;20214;-80
2022/10/21 04:42:46;;;;;;;5.53;3.38;;;15.30;99.90;;;;;;5019895;28;20200;-80
2022/10/21 04:45:14;;;;;;;6.18;3.80;;;15.30;99.90;;;;;;4997899;28;20207;-79
2022/10/21 04:47:43;;;;;;;5.13;3.67;;;15.20;99.90;;;;;;4998355;28;20227;-80
2022/10/21 04:50:11;;;;;;;5.55;3.90;;;15.20;99.90;;;;;;4998249;28;20203;-80
2022/10/21 04:52:39;;;;;;;5.63;3.80;;;15.30;99.90;;;;;;4997417;28;20685;-79
2022/10/21 04:55:07;;;;;;;5.20;4.25;;;15.30;99.90;;;;;;4993269;28;20689;-80
2022/10/21 04:57:35;;;;;;;6.30;4.00;;;15.30;99.90;;;;;;5012651;28;20233;-79
2022/10/21 05:00:03;;;;;;;4.47;3.30;;;15.30;99.90;;;;;;4993420;28;20213;-77
2022/10/21 05:02:31;;;;;;;5.85;3.75;;;15.30;99.90;;;;;;4993478;28;20207;-79
2022/10/21 05:04:59;;;;;;;4.93;3.47;;;15.30;99.90;;;;;;4991999;28;20203;-80
2022/10/21 05:07:27;;;;;;;7.18;3.60;;;15.30;99.90;;;;;;4995699;28;20199;-79
2022/10/21 05:09:54;;;;;;;4.50;3.45;;;15.30;99.90;;;;;;4994786;28;20219;-78
2022/10/21 05:12:22;;;;;;;12.27;3.25;;;15.30;99.90;;;;;;4994615;28;20208;-80
2022/10/21 05:14:49;;;;;;;3.70;3.25;;;15.40;99.90;;;;;;4995470;28;20206;-79
2022/10/21 05:17:16;;;;;;;4.97;3.95;;;15.40;99.90;;;;;;4996130;28;20210;-81
2022/10/21 05:19:44;;;;;;;6.70;3.60;;;15.40;99.90;;;;;;4996954;28;20313;-82
2022/10/21 05:22:13;;;;;;;4.97;3.33;;;15.40;99.90;;;;;;4994528;28;20203;-82
2022/10/21 05:24:40;;;;;;;7.30;3.92;;;15.40;99.90;;;;;;4995628;28;20211;-82
2022/10/21 05:27:07;;;;;;;7.07;3.55;;;15.40;99.90;;;;;;4995261;28;20206;-81
2022/10/21 05:29:35;;;;;;;6.00;3.55;;;15.40;99.90;;;;;;4992686;28;20612;-81
2022/10/21 05:32:02;;;;;;;4.15;3.30;;;15.40;99.90;;;;;;4995107;28;20191;-81
2022/10/21 05:34:30;;;;;;;4.28;3.60;;;15.40;99.90;;;;;;5011812;28;20207;-81
2022/10/21 05:36:58;;;;;;;5.55;3.42;;;15.40;99.90;;;;;;4994387;28;20204;-81
2022/10/21 05:39:27;;;;;;;4.25;3.22;;;15.40;99.90;;;;;;5013730;28;20211;-81
2022/10/21 05:41:54;;;;;;;3.75;3.22;;;15.40;99.90;;;;;;4997478;28;20204;-81
2022/10/21 05:44:22;;;;;;;6.15;3.28;;;15.40;99.90;;;;;;5002577;28;20204;-81
2022/10/21 05:46:49;;;;;;;4.38;3.17;;;15.40;99.90;;;;;;4999377;28;20204;-81
2022/10/21 05:49:16;;;;;;;3.78;3.00;;;15.40;99.90;;;;;;4995383;28;20223;-81
2022/10/21 05:51:44;;;;;;;4.18;3.28;;;15.40;99.90;;;;;;4993134;28;20207;-81
2022/10/21 05:54:12;;;;;;;7.13;3.58;;;15.40;99.90;;;;;;4992361;28;20210;-79
2022/10/21 05:56:41;;;;;;;6.30;2.85;;;15.40;99.90;;;;;;4991968;28;20207;-79
2022/10/21 05:59:09;;;;;;;5.18;3.38;;;15.40;99.90;;;;;;4993659;28;20227;-79
2022/10/21 06:01:38;;;;;;;5.70;3.28;;;15.40;99.90;;;;;;5005487;28;20200;-80
2022/10/21 06:04:05;;;;;;;3.45;2.92;;;15.40;99.90;;;;;;4989162;28;20209;-80
2022/10/21 06:06:33;;;;;;;8.73;3.58;;;15.40;99.90;;;;;;5002992;28;20208;-79
2022/10/21 06:09:04;;;;;;;3.75;2.92;;;15.30;99.90;;;;;;5005393;28;20254;-78
2022/10/21 06:11:32;;;;;;;4.00;2.90;;;15.30;99.90;;;;;;4989048;28;20283;-79
2022/10/21 06:14:01;;;;;;;2.92;2.63;;;15.30;99.90;;;;;;4985540;28;20211;-79
2022/10/21 06:16:28;;;;;;;4.78;2.90;;;15.30;99.90;;;;;;4989620;28;20211;-79
2022/10/21 06:18:56;;;;;;;5.97;3.08;;;15.30;99.90;;;;;;4990326;28;20230;-79
2022/10/21 06:21:26;;;;;;;4.32;2.90;;;15.30;99.90;;;;;;4994052;28;20214;-79
2022/10/21 06:24:20;;;;;;;4.93;2.90;;;15.30;99.90;;;;;;4992249;28;20207;-79
2022/10/21 06:27:05;;;;;;;5.20;3.08;;;15.30;99.90;;;;;;5010937;28;20191;-78
2022/10/21 06:29:52;;;;;;;4.00;3.17;;;15.30;99.90;;;;;;5005197;28;20234;-78
2022/10/21 06:33:07;;;;;;;4.35;3.22;;;15.30;99.90;;;;;;5164056;27;20932;-79
2022/10/21 08:13:13;;;;;;;6.07;3.83;;;16.00;99.90;;;;;;4930702;28;20194;-83
2022/10/21 08:15:42;;;;;;;5.57;3.13;;;16.00;99.90;;;;;;4911947;29;20203;-82
2022/10/21 08:18:16;;;;;;;4.65;3.08;;;16.00;99.90;;;;;;4954906;28;20218;-81
2022/10/21 08:20:50;;;;;;;6.78;3.25;;;16.10;99.90;;;;;;5049320;28;20190;-83
2022/10/21 08:23:25;;;;;;;6.20;4.07;;;16.20;99.90;;;;;;5049001;28;20219;-84
2022/10/21 08:26:00;;;;;;;3.95;3.10;;;16.20;99.90;;;;;;5050954;28;20205;-83
2022/10/21 08:28:44;;;;;;;6.85;3.45;;;16.20;99.90;;;;;;5049234;28;20241;-83
2022/10/21 08:31:26;;;;;;;5.45;3.55;;;16.20;99.90;;;;;;5039015;28;20202;-85
2022/10/21 08:34:10;;;;;;;5.18;3.35;;;16.20;99.90;;;;;;5051119;28;20213;-79
2022/10/21 08:36:45;;;;;;;4.10;3.42;;;16.30;99.90;;;;;;5048634;28;20707;-78
2022/10/21 08:39:23;;;;;;;6.78;3.58;;;16.30;99.90;;;;;;5045841;28;20457;-78
2022/10/21 08:42:29;;;;;;;;;;;;;;;;;;;;;
2022/10/21 08:51:46;;;;;;;6.25;3.35;;;16.30;99.90;;;;;;5070405;28;20205;-78
2022/10/21 09:03:10;;;;;;;5.97;3.42;;;16.30;99.90;;;;;;4851966;29;20596;-78
2022/10/21 09:10:08;;;;;;;6.93;4.10;;;16.30;99.90;;;;;;4807325;29;20608;-78
2022/10/21 09:27:03;;;;;;;5.45;3.47;;;16.40;99.90;;;;;;4986801;28;20208;-78
2022/10/21 09:30:20;;;;;;;6.80;3.38;;;16.30;99.90;;;;;;4855176;29;20300;-78
2022/10/21 09:33:22;;;;;;;9.27;4.25;;;16.30;99.90;;;;;;4916265;29;20220;-78
2022/10/21 09:40:23;;;;;;;5.35;4.00;;;16.20;99.90;;;;;;4963653;28;20222;-78
2022/10/21 09:42:55;;;;;;;6.68;4.20;;;16.10;99.90;;;;;;5009748;28;20215;-78
2022/10/21 09:45:32;;;;;;;4.78;3.85;;;16.00;99.90;;;;;;5010539;28;20615;-78
2022/10/21 09:48:39;;;;;;;;;;;;;;;;;;;;;
2022/10/21 10:01:29;;;;;;;7.70;4.78;;;15.90;99.90;;;;;;4944933;28;20212;-79
2022/10/21 10:03:56;;;;;;;7.35;4.30;;;15.90;99.90;;;;;;5011279;28;20222;-77
2022/10/21 10:06:40;;;;;;;6.13;4.53;;;15.90;99.90;;;;;;5030202;28;20211;-78
2022/10/21 10:09:45;;;;;;;6.15;4.25;;;15.90;99.90;;;;;;5030580;28;20227;-78
2022/10/21 10:12:17;;;;;;;6.55;4.40;;;16.00;99.90;;;;;;5033746;28;20191;-78
2022/10/21 10:14:55;;;;;;;6.63;4.05;;;15.90;99.90;;;;;;5011920;28;20203;-78
2022/10/21 10:17:30;;;;;;;7.13;4.53;;;15.90;99.90;;;;;;5010611;28;20615;-78
2022/10/21 10:20:17;;;;;;;5.97;4.35;;;15.90;99.90;;;;;;5012411;28;20203;-78
2022/10/21 10:22:46;;;;;;;6.03;4.35;;;16.00;99.90;;;;;;5015759;28;20215;-78
2022/10/21 10:25:22;;;;;;;8.15;4.43;;;15.90;99.90;;;;;;5029700;28;20203;-78
2022/10/21 10:27:53;;;;;;;5.53;4.55;;;15.90;99.90;;;;;;5033939;28;20219;-79
2022/10/21 10:30:21;;;;;;;6.28;3.97;;;15.80;99.90;;;;;;5013939;28;20210;-78
2022/10/21 10:32:52;;;;;;;7.63;4.40;;;15.80;99.90;;;;;;5029784;28;20207;-78
2022/10/21 10:35:31;;;;;;;7.07;4.38;;;15.80;99.90;;;;;;5011250;28;20191;-77
2022/10/21 10:38:01;;;;;;;11.30;7.40;;;15.80;99.90;;;;;;5016461;28;20219;-77
2022/10/21 10:40:32;;;;;;;8.75;6.38;;;16.10;99.90;;;;;;5005234;28;20629;-78
2022/10/21 10:43:05;;;;;;;10.73;6.97;;;16.20;99.90;;;;;;5024969;28;20238;-78
2022/10/21 10:45:34;;;;;;;6.50;3.72;;;16.40;99.90;;;;;;5012419;28;20219;-78
2022/10/21 10:48:06;;;;;;;8.35;4.57;;;16.30;99.90;;;;;;5008403;28;20243;-78
2022/10/21 10:50:47;;;;;;;5.57;4.55;;;16.30;99.90;;;;;;5026302;28;20195;-78
2022/10/21 10:53:22;;;;;;;6.97;5.03;;;16.20;99.90;;;;;;5021036;28;20195;-78
2022/10/21 10:55:55;;;;;;;8.93;4.80;;;16.20;99.90;;;;;;5022147;28;20218;-79
2022/10/21 10:58:28;;;;;;;5.60;4.30;;;16.30;99.90;;;;;;5008022;28;20231;-79
2022/10/21 11:00:59;;;;;;;7.15;4.50;;;16.10;99.90;;;;;;5012961;28;20211;-79
2022/10/21 11:03:35;;;;;;;5.72;4.38;;;16.10;99.90;;;;;;5028188;28;20228;-79
2022/10/21 11:06:13;;;;;;;7.30;4.55;;;16.00;99.90;;;;;;5011840;28;20204;-78
2022/10/21 11:08:44;;;;;;;7.45;4.38;;;16.00;99.90;;;;;;5011963;28;20227;-79
2022/10/21 11:11:17;;;;;;;4.97;3.53;;;16.00;99.90;;;;;;5011635;28;20203;-79
2022/10/21 11:13:44;;;;;;;4.88;3.80;;;16.00;99.90;;;;;;5007565;28;20187;-79
2022/10/21 11:16:54;;;;;;;6.82;3.00;;;15.90;99.90;;;;;;5005127;28;20689;-79
2022/10/21 11:19:29;;;;;;;5.05;3.42;;;15.90;99.90;;;;;;4973412;28;20233;-78
2022/10/21 11:22:07;;;;;;;3.85;2.97;;;15.90;99.90;;;;;;5000245;28;20776;-78
2022/10/21 11:24:56;;;;;;;7.30;3.17;;;15.90;99.90;;;;;;5009894;28;20215;-78
2022/10/21 11:27:37;;;;;;;3.47;2.78;;;15.90;99.90;;;;;;5025314;28;20205;-78
2022/10/21 11:30:11;;;;;;;5.40;3.13;;;15.90;99.90;;;;;;5028819;28;20199;-78
2022/10/21 11:32:53;;;;;;;3.75;2.72;;;16.00;99.90;;;;;;5030861;28;20195;-78
2022/10/21 11:35:42;;;;;;;3.72;2.60;;;15.90;99.90;;;;;;5014416;28;20688;-78
2022/10/21 11:38:43;;;;;;;4.25;2.95;;;15.90;99.90;;;;;;5025699;28;20224;-78
2022/10/21 11:41:25;;;;;;;5.78;3.00;;;15.90;99.90;;;;;;4991229;28;20215;-78
2022/10/21 11:44:04;;;;;;;3.88;3.03;;;16.00;99.90;;;;;;5014373;28;20215;-78
2022/10/21 11:46:43;;;;;;;4.22;2.50;;;15.90;99.90;;;;;;5020248;28;20202;-78
2022/10/21 11:49:20;;;;;;;2.30;2.10;;;15.90;99.90;;;;;;5003259;28;20685;-78
2022/10/21 11:51:56;;;;;;;3.92;2.40;;;16.00;99.90;;;;;;5006817;28;20207;-78
2022/10/21 11:54:51;;;;;;;3.20;2.50;;;16.00;99.90;;;;;;5010313;28;20203;-78
2022/10/21 11:57:24;;;;;;;3.33;1.92;;;16.10;99.90;;;;;;5013334;28;20199;-78
2022/10/21 12:00:05;;;;;;;3.08;2.42;;;16.10;99.90;;;;;;5024890;28;20200;-78
2022/10/21 12:02:42;;;;;;;3.50;2.40;;;16.20;99.90;;;;;;5019000;28;20200;-78
2022/10/21 12:05:19;;;;;;;4.70;2.40;;;16.20;99.90;;;;;;5026511;28;20201;-78
2022/10/21 12:08:07;;;;;;;4.18;2.20;;;16.20;99.90;;;;;;5027306;28;20234;-78
2022/10/21 12:10:43;;;;;;;4.53;2.10;;;16.20;99.90;;;;;;5029144;28;20203;-79
2022/10/21 12:13:15;;;;;;;6.05;2.28;;;16.20;99.90;;;;;;5004066;28;20195;-78
2022/10/21 12:15:49;;;;;;;3.03;2.22;;;16.30;99.90;;;;;;5010180;28;20549;-78
2022/10/21 12:18:19;;;;;;;2.83;1.75;;;16.30;99.90;;;;;;5011540;28;20220;-78
2022/10/21 12:20:50;;;;;;;3.60;2.00;;;16.40;99.90;;;;;;5028165;28;20222;-78
2022/10/21 12:23:34;;;;;;;2.75;1.90;;;16.40;99.90;;;;;;5009615;28;20215;-78
2022/10/21 12:26:22;;;;;;;3.05;2.30;;;16.40;99.90;;;;;;5010023;28;20203;-78
2022/10/21 12:28:55;;;;;;;4.40;2.45;;;16.50;99.90;;;;;;5009745;28;20215;-78
2022/10/21 12:31:44;;;;;;;4.85;2.00;;;16.60;99.90;;;;;;5023328;28;20204;-77
2022/10/21 12:34:13;;;;;;;4.22;2.00;;;16.70;99.90;;;;;;5009716;28;20214;-78
2022/10/21 12:36:48;;;;;;;4.00;2.00;;;16.90;99.90;;;;;;5024313;28;20741;-78
2022/10/21 12:39:48;;;;;;;3.28;1.95;;;17.20;99.90;;;;;;5006779;28;20227;-78
2022/10/21 12:42:19;;;;;;;3.13;1.60;;;17.40;99.90;;;;;;5021117;28;20545;-78
2022/10/21 12:44:48;;;;;;;3.53;1.80;;;17.80;99.90;;;;;;5010308;28;20204;-78
2022/10/21 12:47:25;;;;;;;3.00;1.98;;;17.80;99.90;;;;;;5012125;28;20196;-78
2022/10/21 12:50:23;;;;;;;3.10;1.88;;;17.80;99.90;;;;;;5047686;22;20257;-75
2022/10/21 12:53:26;;;;;;;2.42;1.90;;;17.90;99.90;;;;;;5029254;28;20210;-75
2022/10/21 12:55:57;;;;;;;2.25;1.83;;;18.50;99.90;;;;;;5027641;28;20199;-74
2022/10/21 12:58:35;;;;;;;3.00;1.63;;;18.70;99.90;;;;;;5033954;28;20231;-76
2022/10/21 13:01:03;;;;;;;2.35;1.52;;;18.70;99.90;;;;;;5027733;28;20209;-75
2022/10/21 13:03:51;;;;;;;3.47;1.83;;;18.70;99.90;;;;;;5012691;28;20227;-74
2022/10/21 13:06:50;;;;;;;2.65;1.60;;;18.50;99.90;;;;;;5020947;28;20215;-75
2022/10/21 13:09:32;;;;;;;1.63;1.38;;;18.80;99.90;;;;;;5030267;28;20220;-76
2022/10/21 13:12:14;;;;;;;3.15;1.60;;;19.00;99.90;;;;;;5028306;28;20204;-75
2022/10/21 13:14:45;;;;;;;2.33;1.70;;;18.80;99.90;;;;;;5026558;28;20192;-75
2022/10/21 13:17:33;;;;;;;3.40;2.03;;;18.60;99.90;;;;;;5010578;28;20199;-75
2022/10/21 13:20:38;;;;;;;2.75;2.13;;;18.50;99.90;;;;;;5009910;28;20216;-75
2022/10/21 13:23:37;;;;;;;3.45;1.70;;;18.40;99.90;;;;;;5002971;28;20209;-75
2022/10/21 13:26:20;;;;;;;2.83;1.77;;;18.20;99.90;;;;;;5008802;28;20180;-74
2022/10/21 13:29:05;;;;;;;3.78;1.70;;;18.10;99.90;;;;;;5007781;28;20680;-74
2022/10/21 13:31:34;;;;;;;3.22;1.48;;;18.10;99.90;;;;;;5027860;28;20207;-74
2022/10/21 13:34:06;;;;;;;2.35;1.60;;;18.00;99.90;;;;;;5012158;28;20188;-74
2022/10/21 13:36:42;;;;;;;1.55;1.40;;;17.90;99.90;;;;;;5042975;28;20206;-74
2022/10/21 13:39:24;;;;;;;2.50;1.50;;;17.90;99.90;;;;;;5019735;28;20222;-74
2022/10/21 13:42:04;;;;;;;4.07;1.52;;;17.90;99.90;;;;;;5010995;28;20196;-74
2022/10/21 13:44:35;;;;;;;3.88;1.70;;;17.90;99.90;;;;;;5013041;28;20199;-75
2022/10/21 13:47:27;;;;;;;3.53;1.70;;;17.80;99.90;;;;;;5027699;28;20223;-75
2022/10/21 13:49:58;;;;;;;2.47;1.40;;;17.80;99.90;;;;;;5039953;28;20242;-75
2022/10/21 13:52:29;;;;;;;2.53;1.65;;;17.80;99.90;;;;;;5047226;28;20203;-75
2022/10/21 13:54:57;;;;;;;4.00;1.60;;;17.70;99.90;;;;;;5031108;28;20203;-75
2022/10/21 13:57:29;;;;;;;6.05;1.75;;;17.80;99.90;;;;;;5031255;28;20207;-75
2022/10/21 14:00:18;;;;;;;1.85;1.60;;;17.80;99.90;;;;;;5031604;28;20223;-74
2022/10/21 14:02:48;;;;;;;4.03;2.22;;;17.80;99.90;;;;;;5046804;28;20198;-75
2022/10/21 14:05:36;;;;;;;3.65;1.50;;;18.00;99.90;;;;;;5047418;28;20211;-74
2022/10/21 14:08:25;;;;;;;1.48;1.30;;;18.10;99.90;;;;;;5022166;28;20195;-75
2022/10/21 14:11:02;;;;;;;3.55;1.17;;;18.00;99.90;;;;;;5027452;28;20580;-75
2022/10/21 14:13:35;;;;;;;3.67;1.40;;;18.10;99.90;;;;;;5045300;28;20202;-75
2022/10/21 14:16:18;;;;;;;1.92;1.55;;;18.00;99.90;;;;;;5021541;28;20191;-75
2022/10/21 14:18:49;;;;;;;3.15;1.48;;;18.00;99.90;;;;;;5041404;28;20223;-75
2022/10/21 14:21:20;;;;;;;2.13;1.38;;;18.10;99.90;;;;;;5028312;28;20287;-75
2022/10/21 14:23:50;;;;;;;4.55;1.80;;;18.00;99.90;;;;;;5030577;28;20199;-75
2022/10/21 14:26:25;;;;;;;2.22;1.52;;;18.00;99.90;;;;;;5029993;28;20187;-75
2022/10/21 14:28:53;;;;;;;2.25;1.20;;;18.00;99.90;;;;;;5026151;28;20226;-75
2022/10/21 14:31:24;;;;;;;2.45;1.35;;;18.10;99.90;;;;;;5057752;28;20199;-75
2022/10/21 14:33:56;;;;;;;1.73;1.40;;;18.30;99.90;;;;;;5025382;28;20195;-75
2022/10/21 14:36:27;;;;;;;2.22;1.50;;;18.60;99.90;;;;;;5019279;28;20204;-74
2022/10/21 14:38:59;;;;;;;2.55;1.33;;;18.90;99.90;;;;;;5019019;28;20211;-74
2022/10/21 14:44:29;;;;;;;2.92;1.40;;;18.90;99.90;;;;;;5031984;28;20234;-74
2022/10/21 14:46:57;;;;;;;2.83;1.60;;;18.70;99.90;;;;;;5045592;28;20206;-74
2022/10/21 14:49:29;;;;;;;2.95;1.45;;;18.60;99.90;;;;;;5029166;28;20226;-73
2022/10/21 14:52:00;;;;;;;2.78;1.42;;;18.50;99.90;;;;;;5044150;28;20207;-74
2022/10/21 14:54:38;;;;;;;1.60;1.48;;;18.30;99.90;;;;;;5057466;28;20205;-74
2022/10/21 15:00:24;;;;;;;1.50;1.40;;;18.20;99.90;;;;;;5032027;28;20215;-74
2022/10/21 15:02:52;;;;;;;2.70;1.30;;;18.10;99.90;;;;;;5048965;28;20203;-74
2022/10/21 15:05:37;;;;;;;2.25;1.50;;;18.00;99.90;;;;;;5044828;28;20214;-74
2022/10/21 15:08:15;;;;;;;2.10;1.45;;;18.10;99.90;;;;;;5025000;28;20203;-73
2022/10/21 15:10:42;;;;;;;3.92;1.52;;;18.20;99.90;;;;;;5029796;28;20195;-74
2022/10/21 15:13:15;;;;;;;3.25;1.50;;;18.10;99.90;;;;;;5048639;28;20568;-74
2022/10/21 15:15:48;;;;;;;1.30;1.20;;;18.10;99.90;;;;;;5036625;28;20183;-73
2022/10/21 15:18:23;;;;;;;2.25;1.40;;;18.10;99.90;;;;;;5028736;28;20233;-73
2022/10/21 15:20:58;;;;;;;2.88;1.27;;;18.20;99.90;;;;;;5044865;28;20198;-73
2022/10/21 15:23:29;;;;;;;3.22;1.38;;;18.20;99.90;;;;;;5038069;28;20202;-73
2022/10/21 15:25:59;;;;;;;2.70;1.65;;;18.20;99.90;;;;;;5033902;28;20211;-74
2022/10/21 15:28:37;;;;;;;2.30;1.85;;;18.30;99.90;;;;;;5045595;28;20226;-73
2022/10/21 15:31:21;;;;;;;1.83;1.33;;;18.30;99.90;;;;;;5035446;28;20199;-74
2022/10/21 15:33:50;;;;;;;4.15;1.30;;;18.30;99.90;;;;;;5049577;28;20535;-74
2022/10/21 15:37:03;;;;;;;1.58;1.33;;;18.20;99.90;;;;;;5049347;28;20545;-74
2022/10/21 15:39:31;;;;;;;1.77;1.13;;;18.20;99.90;;;;;;5031019;28;20226;-73
2022/10/21 15:42:02;;;;;;;3.75;1.30;;;18.30;99.90;;;;;;5027968;28;20191;-74
2022/10/21 15:44:34;;;;;;;1.98;1.20;;;18.20;99.90;;;;;;5043556;28;20195;-74
2022/10/21 15:47:07;;;;;;;1.92;1.30;;;18.20;99.90;;;;;;5032239;28;20202;-73
2022/10/21 15:49:37;;;;;;;2.10;1.50;;;18.20;99.90;;;;;;5065071;28;20674;-74
2022/10/21 15:52:05;;;;;;;2.08;1.63;;;18.10;99.90;;;;;;5043133;28;20229;-74
2022/10/21 15:55:24;;;;;;;3.42;1.50;;;18.20;99.90;;;;;;5033841;28;20191;-74